createdAt,value
2016-04-26T00:00:33.453Z,994.13
2016-04-26T00:01:33.456Z,994.12
2016-04-26T00:02:33.411Z,994.16
2016-04-26T00:03:33.398Z,994.14
2016-04-26T00:04:33.386Z,994.15
2016-04-26T00:05:33.377Z,994.15
2016-04-26T00:06:33.348Z,994.15
2016-04-26T00:07:33.335Z,994.13
2016-04-26T00:08:33.306Z,994.16
2016-04-26T00:09:33.293Z,994.14
2016-04-26T00:10:33.281Z,994.21
2016-04-26T00:11:33.251Z,994.16
2016-04-26T00:12:33.239Z,994.18
2016-04-26T00:13:33.226Z,994.18
2016-04-26T00:14:33.198Z,994.17
2016-04-26T00:15:33.184Z,994.19
2016-04-26T00:16:33.172Z,994.18
2016-04-26T00:17:33.143Z,994.18
2016-04-26T00:18:33.131Z,994.2
2016-04-26T00:19:33.117Z,994.21
2016-04-26T00:20:33.089Z,994.21
2016-04-26T00:21:33.075Z,994.3
2016-04-26T00:22:33.063Z,994.32
2016-04-26T00:23:33.034Z,994.27
2016-04-26T00:24:33.022Z,994.28
2016-04-26T00:25:33.008Z,994.27
2016-04-26T00:26:32.980Z,994.19
2016-04-26T00:27:32.967Z,994.21
2016-04-26T00:28:32.954Z,994.21
2016-04-26T00:29:32.941Z,994.16
2016-04-26T00:30:32.913Z,994.17
2016-04-26T00:31:33.478Z,994.12
2016-04-26T00:32:32.887Z,994.13
2016-04-26T00:33:32.858Z,994.09
2016-04-26T00:34:32.845Z,994.08
2016-04-26T00:35:32.832Z,994.14
2016-04-26T00:36:32.804Z,994.11
2016-04-26T00:37:32.791Z,994.14
2016-04-26T00:38:32.778Z,994.09
2016-04-26T00:39:32.749Z,994.07
2016-04-26T00:40:32.737Z,994.09
2016-04-26T00:41:32.723Z,994.09
2016-04-26T00:42:32.695Z,994.08
2016-04-26T00:43:32.681Z,994.13
2016-04-26T00:44:32.669Z,994.07
2016-04-26T00:45:32.640Z,994.06
2016-04-26T00:46:32.642Z,994.07
2016-04-26T00:47:32.615Z,994.06
2016-04-26T00:48:32.586Z,994.08
2016-04-26T00:49:32.572Z,994.03
2016-04-26T00:50:32.561Z,993.97
2016-04-26T00:51:32.531Z,994.02
2016-04-26T00:52:32.519Z,994.01
2016-04-26T00:53:32.506Z,994.03
2016-04-26T00:54:32.477Z,993.92
2016-04-26T00:55:32.464Z,993.91
2016-04-26T00:56:32.451Z,993.93
2016-04-26T00:57:32.438Z,993.94
2016-04-26T00:58:32.410Z,993.96
2016-04-26T00:59:32.397Z,994
2016-04-26T01:00:32.368Z,994
2016-04-26T01:01:32.386Z,993.98
2016-04-26T01:02:32.342Z,994
2016-04-26T01:03:32.330Z,993.97
2016-04-26T01:04:32.302Z,993.95
2016-04-26T01:05:32.288Z,993.95
2016-04-26T01:06:32.275Z,993.97
2016-04-26T01:07:32.246Z,993.96
2016-04-26T01:08:32.234Z,993.97
2016-04-26T01:09:32.220Z,993.94
2016-04-26T01:10:32.193Z,993.93
2016-04-26T01:11:32.179Z,993.89
2016-04-26T01:12:32.150Z,993.9
2016-04-26T01:13:32.138Z,993.85
2016-04-26T01:14:32.123Z,993.87
2016-04-26T01:15:32.109Z,993.89
2016-04-26T01:16:32.081Z,993.87
2016-04-26T01:17:32.068Z,993.81
2016-04-26T01:18:32.054Z,993.82
2016-04-26T01:19:32.026Z,993.83
2016-04-26T01:20:32.014Z,993.86
2016-04-26T01:21:31.984Z,993.83
2016-04-26T01:22:31.971Z,993.88
2016-04-26T01:23:31.959Z,993.82
2016-04-26T01:24:31.930Z,993.91
2016-04-26T01:25:31.917Z,993.89
2016-04-26T01:26:31.905Z,993.88
2016-04-26T01:27:31.875Z,993.85
2016-04-26T01:28:31.863Z,993.89
2016-04-26T01:29:31.850Z,993.88
2016-04-26T01:30:31.837Z,993.87
2016-04-26T01:31:31.808Z,993.86
2016-04-26T01:32:31.796Z,993.86
2016-04-26T01:33:31.782Z,993.9
2016-04-26T01:34:31.754Z,993.89
2016-04-26T01:35:31.741Z,993.88
2016-04-26T01:36:31.713Z,993.84
2016-04-26T01:37:31.699Z,993.86
2016-04-26T01:38:31.687Z,993.82
2016-04-26T01:39:31.658Z,993.84
2016-04-26T01:40:31.646Z,993.79
2016-04-26T01:41:31.632Z,993.82
2016-04-26T01:42:31.603Z,993.8
2016-04-26T01:43:31.591Z,993.8
2016-04-26T01:44:31.578Z,993.81
2016-04-26T01:45:31.549Z,993.79
2016-04-26T01:46:31.536Z,993.77
2016-04-26T01:47:31.524Z,993.77
2016-04-26T01:48:31.495Z,993.74
2016-04-26T01:49:31.481Z,993.78
2016-04-26T01:50:31.469Z,993.74
2016-04-26T01:51:31.440Z,993.73
2016-04-26T01:52:31.427Z,993.71
2016-04-26T01:53:31.415Z,993.72
2016-04-26T01:54:31.386Z,993.66
2016-04-26T01:55:31.372Z,993.72
2016-04-26T01:56:31.345Z,993.71
2016-04-26T01:57:31.331Z,993.71
2016-04-26T01:58:31.318Z,993.72
2016-04-26T01:59:31.306Z,993.73
2016-04-26T02:00:31.277Z,993.78
2016-04-26T02:01:31.264Z,993.76
2016-04-26T02:02:31.252Z,993.77
2016-04-26T02:03:31.222Z,993.77
2016-04-26T02:04:31.210Z,993.78
2016-04-26T02:05:31.181Z,993.77
2016-04-26T02:06:31.183Z,993.79
2016-04-26T02:07:31.156Z,993.78
2016-04-26T02:08:31.127Z,993.76
2016-04-26T02:09:31.113Z,993.7
2016-04-26T02:10:31.086Z,993.76
2016-04-26T02:11:31.072Z,993.68
2016-04-26T02:12:31.059Z,993.67
2016-04-26T02:13:31.031Z,993.69
2016-04-26T02:14:31.018Z,993.7
2016-04-26T02:15:31.004Z,993.68
2016-04-26T02:16:30.976Z,993.67
2016-04-26T02:17:30.963Z,993.68
2016-04-26T02:18:30.951Z,993.66
2016-04-26T02:19:30.922Z,993.64
2016-04-26T02:20:30.909Z,993.59
2016-04-26T02:21:30.896Z,993.58
2016-04-26T02:22:30.867Z,993.6
2016-04-26T02:23:30.861Z,993.6
2016-04-26T02:24:30.833Z,993.57
2016-04-26T02:25:30.805Z,993.65
2016-04-26T02:26:30.791Z,993.62
2016-04-26T02:27:30.779Z,993.6
2016-04-26T02:28:30.750Z,993.64
2016-04-26T02:29:30.737Z,993.63
2016-04-26T02:30:30.724Z,993.63
2016-04-26T02:31:30.695Z,993.61
2016-04-26T02:32:30.683Z,993.57
2016-04-26T02:33:30.654Z,993.65
2016-04-26T02:34:30.640Z,993.63
2016-04-26T02:35:30.628Z,993.56
2016-04-26T02:36:30.599Z,993.61
2016-04-26T02:37:30.587Z,993.62
2016-04-26T02:38:30.558Z,993.62
2016-04-26T02:39:30.546Z,993.6
2016-04-26T02:40:30.532Z,993.63
2016-04-26T02:41:30.520Z,993.6
2016-04-26T02:42:30.506Z,993.62
2016-04-26T02:43:30.477Z,993.66
2016-04-26T02:44:30.450Z,993.63
2016-04-26T02:45:30.437Z,993.63
2016-04-26T02:46:30.408Z,993.62
2016-04-26T02:47:30.394Z,993.63
2016-04-26T02:48:30.382Z,993.59
2016-04-26T02:49:30.353Z,993.63
2016-04-26T02:50:30.340Z,993.64
2016-04-26T02:51:30.311Z,993.61
2016-04-26T02:52:30.300Z,993.58
2016-04-26T02:53:30.286Z,993.58
2016-04-26T02:54:30.272Z,993.57
2016-04-26T02:55:30.245Z,993.53
2016-04-26T02:56:30.231Z,993.54
2016-04-26T02:57:30.203Z,993.5
2016-04-26T02:58:30.190Z,993.49
2016-04-26T02:59:30.161Z,993.47
2016-04-26T03:00:30.149Z,993.46
2016-04-26T03:01:30.136Z,993.51
2016-04-26T03:02:30.451Z,993.53
2016-04-26T03:03:30.093Z,993.52
2016-04-26T03:04:30.066Z,993.56
2016-04-26T03:05:30.052Z,993.52
2016-04-26T03:06:30.040Z,993.54
2016-04-26T03:07:30.026Z,993.51
2016-04-26T03:08:29.998Z,993.49
2016-04-26T03:09:29.985Z,993.52
2016-04-26T03:10:29.956Z,993.51
2016-04-26T03:11:29.943Z,993.51
2016-04-26T03:12:29.915Z,993.47
2016-04-26T03:13:29.903Z,993.51
2016-04-26T03:14:29.873Z,993.53
2016-04-26T03:15:29.861Z,993.51
2016-04-26T03:16:29.847Z,993.47
2016-04-26T03:17:29.821Z,993.49
2016-04-26T03:18:29.807Z,993.45
2016-04-26T03:19:29.795Z,993.46
2016-04-26T03:20:29.765Z,993.37
2016-04-26T03:21:29.753Z,993.44
2016-04-26T03:22:29.724Z,993.41
2016-04-26T03:23:29.711Z,993.39
2016-04-26T03:24:29.683Z,993.36
2016-04-26T03:25:29.670Z,993.38
2016-04-26T03:26:29.657Z,993.34
2016-04-26T03:27:29.628Z,993.35
2016-04-26T03:28:29.615Z,993.38
2016-04-26T03:29:29.603Z,993.39
2016-04-26T03:30:29.589Z,993.42
2016-04-26T03:31:29.561Z,993.38
2016-04-26T03:32:29.548Z,993.37
2016-04-26T03:33:29.519Z,993.37
2016-04-26T03:34:29.506Z,993.37
2016-04-26T03:35:29.478Z,993.24
2016-04-26T03:36:29.465Z,993.32
2016-04-26T03:37:29.436Z,993.28
2016-04-26T03:38:29.424Z,993.27
2016-04-26T03:39:29.411Z,993.24
2016-04-26T03:40:29.382Z,993.23
2016-04-26T03:41:29.369Z,993.25
2016-04-26T03:42:29.341Z,993.29
2016-04-26T03:43:29.327Z,993.25
2016-04-26T03:44:29.315Z,993.25
2016-04-26T03:45:29.285Z,993.21
2016-04-26T03:46:29.274Z,993.19
2016-04-26T03:47:29.729Z,993.19
2016-04-26T03:48:29.231Z,993.21
2016-04-26T03:49:29.219Z,993.2
2016-04-26T03:50:29.190Z,993.13
2016-04-26T03:51:29.177Z,993.15
2016-04-26T03:52:29.165Z,993.16
2016-04-26T03:53:29.151Z,993.18
2016-04-26T03:54:29.123Z,993.13
2016-04-26T03:55:29.094Z,993.17
2016-04-26T03:56:29.081Z,993.2
2016-04-26T03:57:29.068Z,993.11
2016-04-26T03:58:29.039Z,993.09
2016-04-26T03:59:29.028Z,993.11
2016-04-26T04:00:29.014Z,993.08
2016-04-26T04:01:28.985Z,993.1
2016-04-26T04:02:28.973Z,993.07
2016-04-26T04:03:28.959Z,993.06
2016-04-26T04:04:28.930Z,993.07
2016-04-26T04:05:28.919Z,993.05
2016-04-26T04:06:28.889Z,993.03
2016-04-26T04:07:28.877Z,993.03
2016-04-26T04:08:28.864Z,993.06
2016-04-26T04:09:28.835Z,993.05
2016-04-26T04:10:28.816Z,993.11
2016-04-26T04:11:28.804Z,993.11
2016-04-26T04:12:28.790Z,993.09
2016-04-26T04:13:28.762Z,993.06
2016-04-26T04:14:28.749Z,993.09
2016-04-26T04:15:28.720Z,993.07
2016-04-26T04:16:28.707Z,993.07
2016-04-26T04:17:29.632Z,993.08
2016-04-26T04:18:28.665Z,993.06
2016-04-26T04:19:28.653Z,993.08
2016-04-26T04:20:28.625Z,993.05
2016-04-26T04:21:28.611Z,993.09
2016-04-26T04:22:28.598Z,993.05
2016-04-26T04:23:28.570Z,992.98
2016-04-26T04:24:28.557Z,993.02
2016-04-26T04:25:28.544Z,992.98
2016-04-26T04:26:28.516Z,992.95
2016-04-26T04:27:28.503Z,992.96
2016-04-26T04:28:28.474Z,993.01
2016-04-26T04:29:28.461Z,992.96
2016-04-26T04:30:28.447Z,992.95
2016-04-26T04:31:28.420Z,993.02
2016-04-26T04:32:28.408Z,993
2016-04-26T04:33:28.378Z,992.96
2016-04-26T04:34:28.366Z,992.97
2016-04-26T04:35:28.352Z,992.99
2016-04-26T04:36:28.324Z,992.96
2016-04-26T04:37:28.310Z,992.95
2016-04-26T04:38:28.298Z,992.91
2016-04-26T04:39:28.269Z,992.92
2016-04-26T04:40:28.257Z,992.94
2016-04-26T04:41:28.227Z,992.88
2016-04-26T04:42:28.215Z,992.91
2016-04-26T04:43:28.202Z,992.96
2016-04-26T04:44:28.173Z,992.93
2016-04-26T04:45:28.160Z,992.88
2016-04-26T04:46:28.148Z,992.89
2016-04-26T04:47:28.118Z,992.92
2016-04-26T04:48:28.106Z,992.92
2016-04-26T04:49:28.078Z,992.83
2016-04-26T04:50:28.064Z,992.88
2016-04-26T04:51:28.051Z,992.79
2016-04-26T04:52:28.023Z,992.84
2016-04-26T04:53:28.009Z,992.8
2016-04-26T04:54:27.997Z,992.76
2016-04-26T04:55:27.969Z,992.81
2016-04-26T04:56:27.971Z,992.75
2016-04-26T04:57:27.942Z,992.77
2016-04-26T04:58:27.914Z,992.74
2016-04-26T04:59:27.901Z,992.74
2016-04-26T05:00:27.888Z,992.7
2016-04-26T05:01:27.860Z,992.7
2016-04-26T05:02:27.847Z,992.69
2016-04-26T05:03:27.833Z,992.71
2016-04-26T05:04:27.821Z,992.65
2016-04-26T05:05:27.808Z,992.74
2016-04-26T05:06:27.794Z,992.77
2016-04-26T05:07:27.767Z,992.7
2016-04-26T05:08:27.753Z,992.63
2016-04-26T05:09:27.741Z,992.66
2016-04-26T05:10:27.713Z,992.67
2016-04-26T05:11:27.699Z,992.61
2016-04-26T05:12:27.686Z,992.58
2016-04-26T05:13:27.673Z,992.61
2016-04-26T05:14:27.660Z,992.6
2016-04-26T05:15:27.648Z,992.67
2016-04-26T05:16:27.618Z,992.62
2016-04-26T05:17:27.824Z,992.61
2016-04-26T05:18:27.592Z,992.57
2016-04-26T05:19:27.580Z,992.58
2016-04-26T05:20:27.568Z,992.47
2016-04-26T05:21:27.539Z,992.47
2016-04-26T05:22:27.526Z,992.54
2016-04-26T05:23:27.512Z,992.55
2016-04-26T05:24:27.500Z,992.5
2016-04-26T05:25:27.487Z,992.52
2016-04-26T05:26:27.473Z,992.54
2016-04-26T05:27:27.461Z,992.44
2016-04-26T05:28:27.448Z,992.42
2016-04-26T05:29:27.436Z,992.41
2016-04-26T05:30:27.438Z,992.38
2016-04-26T05:31:27.425Z,992.39
2016-04-26T05:32:27.412Z,992.48
2016-04-26T05:33:27.399Z,992.45
2016-04-26T05:34:27.386Z,992.49
2016-04-26T05:35:27.373Z,992.44
2016-04-26T05:36:27.360Z,992.49
2016-04-26T05:37:27.363Z,992.5
2016-04-26T05:38:27.349Z,992.47
2016-04-26T05:39:27.337Z,992.4
2016-04-26T05:40:27.324Z,992.44
2016-04-26T05:41:27.326Z,992.47
2016-04-26T05:42:27.313Z,992.5
2016-04-26T05:43:27.301Z,992.5
2016-04-26T05:44:27.288Z,992.49
2016-04-26T05:45:27.274Z,992.5
2016-04-26T05:46:27.277Z,992.47
2016-04-26T05:47:27.420Z,992.53
2016-04-26T05:48:27.251Z,992.49
2016-04-26T05:49:27.239Z,992.47
2016-04-26T05:50:27.226Z,992.53
2016-04-26T05:51:27.229Z,992.5
2016-04-26T05:52:27.215Z,992.48
2016-04-26T05:53:27.203Z,992.5
2016-04-26T05:54:27.190Z,992.42
2016-04-26T05:55:27.192Z,992.49
2016-04-26T05:56:27.179Z,992.47
2016-04-26T05:57:27.171Z,992.53
2016-04-26T05:58:27.162Z,992.49
2016-04-26T05:59:27.149Z,992.46
2016-04-26T06:00:31.059Z,992.47
2016-04-26T06:01:27.133Z,992.54
2016-04-26T06:02:27.120Z,992.53
2016-04-26T06:03:27.122Z,992.51
2016-04-26T06:04:27.110Z,992.44
2016-04-26T06:05:27.098Z,992.52
2016-04-26T06:06:27.084Z,992.51
2016-04-26T06:07:27.087Z,992.55
2016-04-26T06:08:27.074Z,992.55
2016-04-26T06:09:27.061Z,992.54
2016-04-26T06:10:27.063Z,992.42
2016-04-26T06:11:27.051Z,992.57
2016-04-26T06:12:27.038Z,992.61
2016-04-26T06:13:27.040Z,992.56
2016-04-26T06:14:27.027Z,992.48
2016-04-26T06:15:27.015Z,992.5
2016-04-26T06:16:27.018Z,992.56
2016-04-26T06:17:27.021Z,992.51
2016-04-26T06:18:26.991Z,992.53
2016-04-26T06:19:26.979Z,992.48
2016-04-26T06:20:26.981Z,992.55
2016-04-26T06:21:26.968Z,992.48
2016-04-26T06:22:26.958Z,992.58
2016-04-26T06:23:26.946Z,992.51
2016-04-26T06:24:26.933Z,992.48
2016-04-26T06:25:26.920Z,992.47
2016-04-26T06:26:26.923Z,992.43
2016-04-26T06:27:26.909Z,992.46
2016-04-26T06:28:26.896Z,992.36
2016-04-26T06:29:26.884Z,992.43
2016-04-26T06:30:26.871Z,992.36
2016-04-26T06:31:26.874Z,992.51
2016-04-26T06:32:27.220Z,992.37
2016-04-26T06:33:26.848Z,992.5
2016-04-26T06:34:26.834Z,992.31
2016-04-26T06:35:26.822Z,992.4
2016-04-26T06:36:26.809Z,992.38
2016-04-26T06:37:26.795Z,992.45
2016-04-26T06:38:26.783Z,992.39
2016-04-26T06:39:26.769Z,992.38
2016-04-26T06:40:26.773Z,992.33
2016-04-26T06:41:26.744Z,992.32
2016-04-26T06:42:26.730Z,992.37
2016-04-26T06:43:26.734Z,992.37
2016-04-26T06:44:26.721Z,992.36
2016-04-26T06:45:26.708Z,992.38
2016-04-26T06:46:26.695Z,992.41
2016-04-26T06:47:26.682Z,992.35
2016-04-26T06:48:26.669Z,992.37
2016-04-26T06:49:26.655Z,992.2
2016-04-26T06:50:26.643Z,992.34
2016-04-26T06:51:26.630Z,992.36
2016-04-26T06:52:26.617Z,992.28
2016-04-26T06:53:26.620Z,992.33
2016-04-26T06:54:26.607Z,992.33
2016-04-26T06:55:26.594Z,992.22
2016-04-26T06:56:26.581Z,992.3
2016-04-26T06:57:26.584Z,992.31
2016-04-26T06:58:26.570Z,992.29
2016-04-26T06:59:26.557Z,992.44
2016-04-26T07:00:26.545Z,992.2
2016-04-26T07:01:26.547Z,992.24
2016-04-26T07:02:26.534Z,992.31
2016-04-26T07:03:26.522Z,992.35
2016-04-26T07:04:26.509Z,992.32
2016-04-26T07:05:26.496Z,992.42
2016-04-26T07:06:26.484Z,992.38
2016-04-26T07:07:26.470Z,992.41
2016-04-26T07:08:26.473Z,992.34
2016-04-26T07:09:26.460Z,992.45
2016-04-26T07:10:26.447Z,992.36
2016-04-26T07:11:26.434Z,992.44
2016-04-26T07:12:26.421Z,992.5
2016-04-26T07:13:26.408Z,992.43
2016-04-26T07:14:26.395Z,992.4
2016-04-26T07:15:26.383Z,992.14
2016-04-26T07:16:26.369Z,992.48
2016-04-26T07:17:26.356Z,992.43
2016-04-26T07:18:26.344Z,992.48
2016-04-26T07:19:26.331Z,992.45
2016-04-26T07:20:26.318Z,992.46
2016-04-26T07:21:26.305Z,992.44
2016-04-26T07:22:26.291Z,992.44
2016-04-26T07:23:26.284Z,992.46
2016-04-26T07:24:26.270Z,992.34
2016-04-26T07:25:26.257Z,992.35
2016-04-26T07:26:26.245Z,992.34
2016-04-26T07:27:26.232Z,992.45
2016-04-26T07:28:26.235Z,992.42
2016-04-26T07:29:26.206Z,992.37
2016-04-26T07:30:26.193Z,992.42
2016-04-26T07:31:26.164Z,992.44
2016-04-26T07:32:26.167Z,992.46
2016-04-26T07:33:26.514Z,992.38
2016-04-26T07:34:26.125Z,992.32
2016-04-26T07:35:26.113Z,992.41
2016-04-26T07:36:26.099Z,992.37
2016-04-26T07:37:26.086Z,992.28
2016-04-26T07:38:26.075Z,992.34
2016-04-26T07:39:26.061Z,992.34
2016-04-26T07:40:26.033Z,992.36
2016-04-26T07:41:26.035Z,992.28
2016-04-26T07:42:26.006Z,992.26
2016-04-26T07:43:25.994Z,992.36
2016-04-26T07:44:25.980Z,992.38
2016-04-26T07:45:26.124Z,992.33
2016-04-26T07:46:25.954Z,992.52
2016-04-26T07:47:26.864Z,992.23
2016-04-26T07:48:26.382Z,992.4
2016-04-26T07:49:25.900Z,992.4
2016-04-26T07:50:25.888Z,992.44
2016-04-26T07:51:25.874Z,992.28
2016-04-26T07:52:25.862Z,992.29
2016-04-26T07:53:25.849Z,992.36
2016-04-26T07:54:25.835Z,992.3
2016-04-26T07:55:25.823Z,992.23
2016-04-26T07:56:25.809Z,992.43
2016-04-26T07:57:25.782Z,992.28
2016-04-26T07:58:25.769Z,992.36
2016-04-26T07:59:25.756Z,992.4
2016-04-26T08:00:25.743Z,992.27
2016-04-26T08:01:25.729Z,992.38
2016-04-26T08:02:25.716Z,992.33
2016-04-26T08:03:25.704Z,992.36
2016-04-26T08:04:25.675Z,992.31
2016-04-26T08:05:25.662Z,992.33
2016-04-26T08:06:25.649Z,992.46
2016-04-26T08:07:25.636Z,992.36
2016-04-26T08:08:25.623Z,992.39
2016-04-26T08:09:25.611Z,992.34
2016-04-26T08:10:25.598Z,992.29
2016-04-26T08:11:25.584Z,992.38
2016-04-26T08:12:25.572Z,992.34
2016-04-26T08:13:25.544Z,991.81
2016-04-26T08:14:25.530Z,992.37
2016-04-26T08:15:25.517Z,992.4
2016-04-26T08:16:25.504Z,992.32
2016-04-26T08:17:25.491Z,992.33
2016-04-26T08:18:25.885Z,992.37
2016-04-26T08:19:25.466Z,992.35
2016-04-26T08:20:25.453Z,992.38
2016-04-26T08:21:25.440Z,992.36
2016-04-26T08:22:25.427Z,992.42
2016-04-26T08:23:25.414Z,992.36
2016-04-26T08:24:25.401Z,992.34
2016-04-26T08:25:25.388Z,992.37
2016-04-26T08:26:25.374Z,992.29
2016-04-26T08:27:25.362Z,992.3
2016-04-26T08:28:25.349Z,992.38
2016-04-26T08:29:25.342Z,992.42
2016-04-26T08:30:25.317Z,992.25
2016-04-26T08:31:25.346Z,992.33
2016-04-26T08:32:25.375Z,992.27
2016-04-26T08:33:25.403Z,992.3
2016-04-26T08:34:25.433Z,992.25
2016-04-26T08:35:25.460Z,992.4
2016-04-26T08:36:25.461Z,992.37
2016-04-26T08:37:25.464Z,992.35
2016-04-26T08:38:25.482Z,992.34
2016-04-26T08:39:25.469Z,992.41
2016-04-26T08:40:25.469Z,992.36
2016-04-26T08:41:25.462Z,992.2
2016-04-26T08:42:25.455Z,992.4
2016-04-26T08:43:25.446Z,992.37
2016-04-26T08:44:25.439Z,992.31
2016-04-26T08:45:25.432Z,992.17
2016-04-26T08:46:25.420Z,992.4
2016-04-26T08:47:25.393Z,992.38
2016-04-26T08:48:26.132Z,992.25
2016-04-26T08:49:25.387Z,992.37
2016-04-26T08:50:25.377Z,992.37
2016-04-26T08:51:25.364Z,992.39
2016-04-26T08:52:28.648Z,992.45
2016-04-26T08:53:25.340Z,992.36
2016-04-26T08:54:25.328Z,992.41
2016-04-26T08:55:25.316Z,992.46
2016-04-26T08:56:25.303Z,992.43
2016-04-26T08:57:25.290Z,992.37
2016-04-26T08:58:25.279Z,992.27
2016-04-26T08:59:25.266Z,992.39
2016-04-26T09:00:25.252Z,992.42
2016-04-26T09:01:25.240Z,992.37
2016-04-26T09:02:27.507Z,992.34
2016-04-26T09:03:25.418Z,992.39
2016-04-26T09:04:25.201Z,992.37
2016-04-26T09:05:25.187Z,992.38
2016-04-26T09:06:25.176Z,992.4
2016-04-26T09:07:25.365Z,992.39
2016-04-26T09:08:25.181Z,992.41
2016-04-26T09:09:25.151Z,992.39
2016-04-26T09:10:25.123Z,992.3
2016-04-26T09:11:25.111Z,992.29
2016-04-26T09:12:25.098Z,992.23
2016-04-26T09:13:25.084Z,992.33
2016-04-26T09:14:25.072Z,992.28
2016-04-26T09:15:25.058Z,992.28
2016-04-26T09:16:25.045Z,992.26
2016-04-26T09:17:25.033Z,992.19
2016-04-26T09:18:25.020Z,992.27
2016-04-26T09:19:25.022Z,992.21
2016-04-26T09:20:24.994Z,992.13
2016-04-26T09:21:24.997Z,992.18
2016-04-26T09:22:24.984Z,992.21
2016-04-26T09:23:24.971Z,992.31
2016-04-26T09:24:24.957Z,992.25
2016-04-26T09:25:37.680Z,992.08
2016-04-26T09:26:24.932Z,992.26
2016-04-26T09:27:24.919Z,992.25
2016-04-26T09:28:24.907Z,992.24
2016-04-26T09:29:24.893Z,992.39
2016-04-26T09:30:24.880Z,992.35
2016-04-26T09:31:24.867Z,992.32
2016-04-26T09:32:24.854Z,992.35
2016-04-26T09:33:24.873Z,992.3
2016-04-26T09:34:24.829Z,992.28
2016-04-26T09:35:24.815Z,992.38
2016-04-26T09:36:24.804Z,992.32
2016-04-26T09:37:24.790Z,992.37
2016-04-26T09:38:24.776Z,992.42
2016-04-26T09:39:24.764Z,992.32
2016-04-26T09:40:24.751Z,992.28
2016-04-26T09:41:24.738Z,992.38
2016-04-26T09:42:24.725Z,992.35
2016-04-26T09:43:24.712Z,992.34
2016-04-26T09:44:24.700Z,992.26
2016-04-26T09:45:24.686Z,992.36
2016-04-26T09:46:24.673Z,992.35
2016-04-26T09:47:24.660Z,992.32
2016-04-26T09:48:24.647Z,992.33
2016-04-26T09:49:24.634Z,992.32
2016-04-26T09:50:24.622Z,992.39
2016-04-26T09:51:24.609Z,992.42
2016-04-26T09:52:24.596Z,992.39
2016-04-26T09:53:24.583Z,992.4
2016-04-26T09:54:24.570Z,992.39
2016-04-26T09:55:24.558Z,992.35
2016-04-26T09:56:24.543Z,992.38
2016-04-26T09:57:24.530Z,992.42
2016-04-26T09:58:24.518Z,992.38
2016-04-26T09:59:24.505Z,992.4
2016-04-26T10:00:24.493Z,992.44
2016-04-26T10:01:24.479Z,992.39
2016-04-26T10:02:24.466Z,992.42
2016-04-26T10:03:24.454Z,992.4
2016-04-26T10:04:24.440Z,992.42
2016-04-26T10:05:24.427Z,992.38
2016-04-26T10:06:24.399Z,992.31
2016-04-26T10:07:24.387Z,992.34
2016-04-26T10:08:24.373Z,992.33
2016-04-26T10:09:24.376Z,992.32
2016-04-26T10:10:24.362Z,992.3
2016-04-26T10:11:24.351Z,992.43
2016-04-26T10:12:24.337Z,992.37
2016-04-26T10:13:24.324Z,992.31
2016-04-26T10:14:24.311Z,992.31
2016-04-26T10:15:24.298Z,992.27
2016-04-26T10:16:24.285Z,992.15
2016-04-26T10:17:24.273Z,992.31
2016-04-26T10:18:24.337Z,992.29
2016-04-26T10:19:24.247Z,992.26
2016-04-26T10:20:24.234Z,992.32
2016-04-26T10:21:24.220Z,992.3
2016-04-26T10:22:24.222Z,992.18
2016-04-26T10:23:24.211Z,992.22
2016-04-26T10:24:24.214Z,992.07
2016-04-26T10:25:24.184Z,992.2
2016-04-26T10:26:24.172Z,992.22
2016-04-26T10:27:24.175Z,992.17
2016-04-26T10:28:24.161Z,992.27
2016-04-26T10:29:24.149Z,992.35
2016-04-26T10:30:24.135Z,992.28
2016-04-26T10:31:24.170Z,992.21
2016-04-26T10:32:24.125Z,992.25
2016-04-26T10:33:24.113Z,992.29
2016-04-26T10:34:26.085Z,992.29
2016-04-26T10:35:24.087Z,992.31
2016-04-26T10:36:24.073Z,992.29
2016-04-26T10:37:24.061Z,992.24
2016-04-26T10:38:24.047Z,992.25
2016-04-26T10:39:24.051Z,992.24
2016-04-26T10:40:24.037Z,992.1
2016-04-26T10:41:24.024Z,992.05
2016-04-26T10:42:24.011Z,992.09
2016-04-26T10:43:24.014Z,992.03
2016-04-26T10:44:24.001Z,992.14
2016-04-26T10:45:23.989Z,992.12
2016-04-26T10:46:23.991Z,992.15
2016-04-26T10:47:23.978Z,992.17
2016-04-26T10:48:23.965Z,992.1
2016-04-26T10:49:23.952Z,992.12
2016-04-26T10:50:23.956Z,992.13
2016-04-26T10:51:23.942Z,992.14
2016-04-26T10:52:23.944Z,992.13
2016-04-26T10:53:23.931Z,992.06
2016-04-26T10:54:23.950Z,991.99
2016-04-26T10:55:23.921Z,992.01
2016-04-26T10:56:23.909Z,992.06
2016-04-26T10:57:23.911Z,992.06
2016-04-26T10:58:23.899Z,992.11
2016-04-26T10:59:23.885Z,992.12
2016-04-26T11:00:23.888Z,992.16
2016-04-26T11:01:23.875Z,992.07
2016-04-26T11:02:23.878Z,992.14
2016-04-26T11:03:23.866Z,992.17
2016-04-26T11:04:25.415Z,992.23
2016-04-26T11:05:23.854Z,992.21
2016-04-26T11:06:23.842Z,991.96
2016-04-26T11:07:23.844Z,992.25
2016-04-26T11:08:23.832Z,992.15
2016-04-26T11:09:23.835Z,992.11
2016-04-26T11:10:23.821Z,992.06
2016-04-26T11:11:23.809Z,992.23
2016-04-26T11:12:23.795Z,992.21
2016-04-26T11:13:23.799Z,992.24
2016-04-26T11:14:23.785Z,992.19
2016-04-26T11:15:23.773Z,992.31
2016-04-26T11:16:23.775Z,992.23
2016-04-26T11:17:23.762Z,992.32
2016-04-26T11:18:24.453Z,992.3
2016-04-26T11:19:23.923Z,992.34
2016-04-26T11:20:23.739Z,992.45
2016-04-26T11:21:23.726Z,992.42
2016-04-26T11:22:23.728Z,992.33
2016-04-26T11:23:23.716Z,992.32
2016-04-26T11:24:23.719Z,992.19
2016-04-26T11:25:23.706Z,992.31
2016-04-26T11:26:23.692Z,992.33
2016-04-26T11:27:23.695Z,992.36
2016-04-26T11:28:23.683Z,992.38
2016-04-26T11:29:23.686Z,992.46
2016-04-26T11:30:23.672Z,992.33
2016-04-26T11:31:23.659Z,992.48
2016-04-26T11:32:23.661Z,992.48
2016-04-26T11:33:23.664Z,992.56
2016-04-26T11:34:23.636Z,992.59
2016-04-26T11:35:23.639Z,992.54
2016-04-26T11:36:23.626Z,992.58
2016-04-26T11:37:23.612Z,992.58
2016-04-26T11:38:23.616Z,992.65
2016-04-26T11:39:23.602Z,992.62
2016-04-26T11:40:23.590Z,992.59
2016-04-26T11:41:23.577Z,992.63
2016-04-26T11:42:23.563Z,992.6
2016-04-26T11:43:23.565Z,992.64
2016-04-26T11:44:23.553Z,992.6
2016-04-26T11:45:26.385Z,992.59
2016-04-26T11:46:23.528Z,992.6
2016-04-26T11:47:23.515Z,992.63
2016-04-26T11:48:23.502Z,992.61
2016-04-26T11:49:23.504Z,992.61
2016-04-26T11:50:23.492Z,992.55
2016-04-26T11:51:23.478Z,992.65
2016-04-26T11:52:23.512Z,992.58
2016-04-26T11:53:23.453Z,992.67
2016-04-26T11:54:23.440Z,992.65
2016-04-26T11:55:23.428Z,992.63
2016-04-26T11:56:23.414Z,992.64
2016-04-26T11:57:23.416Z,992.61
2016-04-26T11:58:23.403Z,992.36
2016-04-26T11:59:23.391Z,992.59
2016-04-26T12:00:23.377Z,992.59
2016-04-26T12:01:23.364Z,992.62
2016-04-26T12:02:23.352Z,992.68
2016-04-26T12:03:23.355Z,992.62
2016-04-26T12:04:23.341Z,992.69
2016-04-26T12:05:23.329Z,992.7
2016-04-26T12:06:23.316Z,992.6
2016-04-26T12:07:23.303Z,992.68
2016-04-26T12:08:23.305Z,992.68
2016-04-26T12:09:23.293Z,992.7
2016-04-26T12:10:23.279Z,992.66
2016-04-26T12:11:23.267Z,992.7
2016-04-26T12:12:23.254Z,992.54
2016-04-26T12:13:23.240Z,992.62
2016-04-26T12:14:23.243Z,992.64
2016-04-26T12:15:23.231Z,992.62
2016-04-26T12:16:23.233Z,992.75
2016-04-26T12:17:23.205Z,992.72
2016-04-26T12:18:23.270Z,992.67
2016-04-26T12:19:23.195Z,992.71
2016-04-26T12:20:23.181Z,992.77
2016-04-26T12:21:23.168Z,992.82
2016-04-26T12:22:23.170Z,992.9
2016-04-26T12:23:23.158Z,992.8
2016-04-26T12:24:23.145Z,992.87
2016-04-26T12:25:23.133Z,992.93
2016-04-26T12:26:23.119Z,992.91
2016-04-26T12:27:23.106Z,993.02
2016-04-26T12:28:23.094Z,993.06
2016-04-26T12:29:23.081Z,993.06
2016-04-26T12:30:23.083Z,993.07
2016-04-26T12:31:23.070Z,993.05